Troutville, PA (15866)

5:31 PM EST on January 30, 2015 (GMT -0500)
APRSWXNET Falls Creek PA US | Change Station
CLOSE
Current Station
Personal Weather Station
Location: Falls Creek, PA
Elevation: 1459 ft
Nearby Weather Stations

Elev 1459 ft 41.14 °N, 78.81 °W | Updated 29 minutes ago

Overcast
Overcast
14 °F
Feels Like 4 °F
N
7
Wind Variable Wind from WNW
Gusts 17.0 mph

Today
High -- | Low -- °F
--% Chance of Precip.
Yesterday
High -- | Low -- °F
Precip. -- in
7:27 AM 5:29 PM
Waxing Gibbous, 85% visible
Pressure 30.25 in
Visibility 4.0 miles
Clouds Overcast 2400 ft
Windchill 4 °F
Dew Point 11 °F
Humidity 86%
Rainfall 0.18 in
Snow Depth Not available.
UV 0 out of 12
Pollen .10 out of 12
Air Quality Not available.
Flu Activity Not available.
METAR KDUJ 302153Z AUTO 30014G22KT 4SM HZ OVC024 M11/M15 A3017 RMK AO2 SLP244 T11061150

More Conditions Fewer Conditions

Pressure 30.25 in
Visibility 4.0 miles
Clouds Overcast 2400 ft
Windchill 4 °F
Dew Point 11 °F
Humidity 86%
Rainfall 0.18 in
Snow Depth Not available.
UV 0 out of 12
Pollen .10 out of 12
Air Quality Not available.
Flu Activity Not available.
METAR KDUJ 302153Z AUTO 30014G22KT 4SM HZ OVC024 M11/M15 A3017 RMK AO2 SLP244 T11061150

More Conditions Fewer Conditions

10-Day Weather Forecast

Almanac

Astronomy

Jan. 30, 2015 Rise Set
Actual Time
Civil Twilight
Nautical Twilight
Astronomical Twilight
Moon
Length of Visible Light
Length of Day
Tomorrow will be .
, % of the Moon is Illuminated

Today's Extremes

State Highs State Lows

Community

WunderPhotos

Upload Photos

1,791,904 photos uploaded!

WunderBlogs® & News

Nearby

Air Quality

  Air Quality AQ Index Pollutant
Not available.

Snow Depth

Station Depth Elevation

Earthquake Activity

City Distance Mag. Time & Date
Minimum magnitude displayed is 2.5.

Coastal Water Temperatures

Place Temperature

Nearby Weather Stations